Time;durP1;ratioP1;P1;durP2;ratioP2;P2;SDS_P1;SDS_P2;PMS_P1;PMS_P2;Temp;Humidity;BMP_temperature;BMP_pressure;BME280_temperature;BME280_humidity;BME280_pressure;Samples;Min_cycle;Max_cycle;Signal;HPM_P1;HPM_P2
2022/10/05 00:01:13;;;;;;;12.48;8.88;;;14.70;82.50;;;;;;5043915;28;20040;-48
2022/10/05 00:03:40;;;;;;;13.75;8.38;;;14.70;82.50;;;;;;5044089;28;20029;-45
2022/10/05 00:06:08;;;;;;;11.20;8.10;;;14.70;82.50;;;;;;5052063;28;20037;-45
2022/10/05 00:08:35;;;;;;;13.05;8.25;;;14.70;82.80;;;;;;5053678;28;20028;-47
2022/10/05 00:11:06;;;;;;;9.95;6.88;;;14.70;82.90;;;;;;5052751;28;20017;-46
2022/10/05 00:13:32;;;;;;;20.00;9.65;;;14.70;82.80;;;;;;5053833;28;20017;-49
2022/10/05 00:16:20;;;;;;;11.63;8.18;;;14.70;82.90;;;;;;5051703;28;20040;-45
2022/10/05 00:18:50;;;;;;;9.93;7.55;;;14.70;82.90;;;;;;5053776;28;20025;-47
2022/10/05 00:21:21;;;;;;;11.43;8.13;;;14.60;83.00;;;;;;5036207;28;20029;-45
2022/10/05 00:23:51;;;;;;;14.45;8.63;;;14.60;83.10;;;;;;5053720;28;20412;-45
2022/10/05 00:26:36;;;;;;;11.07;7.95;;;14.60;83.20;;;;;;5051397;28;20029;-49
2022/10/05 00:29:17;;;;;;;13.02;8.38;;;14.60;83.30;;;;;;5052186;28;20025;-46
2022/10/05 00:31:44;;;;;;;11.25;7.97;;;14.60;83.30;;;;;;5052212;28;20021;-46
2022/10/05 00:34:10;;;;;;;10.60;7.50;;;14.60;83.40;;;;;;5035233;28;20055;-46
2022/10/05 00:36:38;;;;;;;9.75;8.05;;;14.60;83.50;;;;;;5051396;28;20033;-47
2022/10/05 00:39:05;;;;;;;14.77;7.65;;;14.60;83.80;;;;;;5053378;28;20056;-46
2022/10/05 00:41:52;;;;;;;13.48;8.60;;;14.60;83.80;;;;;;5052207;28;20083;-47
2022/10/05 00:44:42;;;;;;;14.07;8.25;;;14.60;83.80;;;;;;5053179;28;20028;-48
2022/10/05 00:47:28;;;;;;;11.70;7.65;;;14.70;83.80;;;;;;5045169;28;20508;-46
2022/10/05 00:50:20;;;;;;;12.27;7.43;;;14.60;84.00;;;;;;5052061;28;20426;-45
2022/10/05 00:52:55;;;;;;;10.23;8.20;;;14.60;84.00;;;;;;5053196;28;20025;-46
2022/10/05 00:55:23;;;;;;;10.65;7.68;;;14.60;84.10;;;;;;5052437;28;20484;-46
2022/10/05 00:58:13;;;;;;;10.68;7.50;;;14.60;84.20;;;;;;5052091;28;20041;-45
2022/10/05 01:01:11;;;;;;;10.57;7.45;;;14.60;84.20;;;;;;5052344;28;20029;-46
2022/10/05 01:04:14;;;;;;;8.43;6.40;;;14.60;84.20;;;;;;5009931;28;20071;-45
2022/10/05 01:06:58;;;;;;;16.25;8.73;;;14.60;84.20;;;;;;5046281;28;20453;-46
2022/10/05 01:09:56;;;;;;;9.43;8.30;;;14.60;84.20;;;;;;5052860;28;20029;-49
2022/10/05 01:12:39;;;;;;;14.02;8.48;;;14.60;84.20;;;;;;5052024;28;20027;-45
2022/10/05 01:15:16;;;;;;;11.45;9.07;;;14.70;84.20;;;;;;5016410;28;20036;-49
2022/10/05 01:18:19;;;;;;;10.63;7.40;;;14.70;84.00;;;;;;5029501;28;20033;-47
2022/10/05 01:20:54;;;;;;;15.85;9.57;;;14.70;84.00;;;;;;5015406;28;20045;-46
2022/10/05 01:24:12;;;;;;;11.82;9.13;;;14.70;84.00;;;;;;5015545;28;20041;-47
2022/10/05 01:27:06;;;;;;;13.02;7.57;;;14.70;84.00;;;;;;4988015;28;20792;-45
2022/10/05 01:29:53;;;;;;;13.32;8.20;;;14.80;84.00;;;;;;5026108;28;20357;-45
2022/10/05 01:32:32;;;;;;;10.48;7.55;;;14.70;84.00;;;;;;5029759;28;20107;-45
2022/10/05 01:35:09;;;;;;;9.95;8.07;;;14.80;84.10;;;;;;5015477;28;20504;-45
2022/10/05 01:37:57;;;;;;;11.70;7.60;;;14.80;84.00;;;;;;5042260;28;20548;-46
2022/10/05 01:40:47;;;;;;;12.18;8.18;;;14.70;84.00;;;;;;5051313;28;20025;-48
2022/10/05 01:43:45;;;;;;;10.82;8.45;;;14.80;84.20;;;;;;5050948;28;20021;-45
2022/10/05 01:46:48;;;;;;;9.73;7.47;;;14.80;84.20;;;;;;5049813;28;20462;-48
2022/10/05 01:49:39;;;;;;;9.25;7.40;;;14.80;83.90;;;;;;5052083;28;20052;-46
2022/10/05 01:52:25;;;;;;;11.43;7.68;;;14.80;83.90;;;;;;5034661;28;20433;-47
2022/10/05 01:55:07;;;;;;;10.98;6.68;;;14.80;84.00;;;;;;5050907;28;20094;-47
2022/10/05 01:58:10;;;;;;;13.00;7.38;;;14.80;84.00;;;;;;5051836;28;20036;-44
2022/10/05 02:01:05;;;;;;;12.20;7.85;;;14.80;84.20;;;;;;5040671;28;20438;-45
2022/10/05 02:03:38;;;;;;;11.55;7.45;;;14.80;84.10;;;;;;5055591;28;20017;-46
2022/10/05 02:06:16;;;;;;;9.82;7.88;;;14.80;84.20;;;;;;5053234;28;20044;-47
2022/10/05 02:08:53;;;;;;;9.48;7.18;;;14.70;84.30;;;;;;5054684;28;20128;-48
2022/10/05 02:11:23;;;;;;;10.50;8.23;;;14.70;84.40;;;;;;5030301;28;20084;-46
2022/10/05 02:14:11;;;;;;;8.10;7.30;;;14.70;84.40;;;;;;5032117;28;20068;-47
2022/10/05 02:16:42;;;;;;;14.27;7.97;;;14.70;84.40;;;;;;5048910;28;20033;-46
2022/10/05 02:19:22;;;;;;;10.85;8.20;;;14.70;84.30;;;;;;5056059;28;20094;-48
2022/10/05 02:22:18;;;;;;;13.18;8.63;;;14.70;84.40;;;;;;5053649;28;20090;-46
2022/10/05 02:24:50;;;;;;;8.15;7.03;;;14.70;84.50;;;;;;5018680;28;20044;-48
2022/10/05 02:27:24;;;;;;;11.82;7.00;;;14.70;84.50;;;;;;5054501;28;20366;-49
2022/10/05 02:29:56;;;;;;;11.82;7.57;;;14.70;84.50;;;;;;5054502;28;20025;-46
2022/10/05 02:32:26;;;;;;;14.45;8.18;;;14.70;84.40;;;;;;5054851;28;20021;-44
2022/10/05 02:35:00;;;;;;;10.73;7.15;;;14.80;84.40;;;;;;5055418;28;20052;-46
2022/10/05 02:37:32;;;;;;;12.05;7.50;;;14.70;84.40;;;;;;5053819;28;20462;-46
2022/10/05 02:40:24;;;;;;;12.27;8.00;;;14.70;84.40;;;;;;5055481;28;20037;-47
2022/10/05 02:43:26;;;;;;;13.05;7.95;;;14.80;84.50;;;;;;5054538;28;20500;-46
2022/10/05 02:46:19;;;;;;;9.43;7.75;;;14.70;84.40;;;;;;5053651;28;20387;-47
2022/10/05 02:49:25;;;;;;;10.13;8.02;;;14.70;84.50;;;;;;5054289;28;20551;-47
2022/10/05 02:52:20;;;;;;;12.52;8.38;;;14.70;84.50;;;;;;5049692;28;20053;-45
2022/10/05 02:55:17;;;;;;;9.30;7.93;;;14.70;84.50;;;;;;5051220;28;20417;-48
2022/10/05 02:58:08;;;;;;;13.98;8.13;;;14.70;84.60;;;;;;5053966;28;20029;-49
2022/10/05 03:01:03;;;;;;;9.93;8.00;;;14.70;84.60;;;;;;5054274;28;20025;-46
2022/10/05 03:03:42;;;;;;;10.15;6.95;;;14.70;84.30;;;;;;5011176;28;20062;-46
2022/10/05 03:06:33;;;;;;;9.85;7.32;;;14.70;84.50;;;;;;5055050;28;20028;-49
2022/10/05 03:09:19;;;;;;;9.32;6.70;;;14.70;84.50;;;;;;5053898;28;20017;-49
2022/10/05 03:12:22;;;;;;;7.93;6.85;;;14.70;84.70;;;;;;5053512;28;20021;-47
2022/10/05 03:15:37;;;;;;;10.85;6.70;;;14.60;84.60;;;;;;5054653;28;20044;-49
2022/10/05 03:18:39;;;;;;;13.98;6.90;;;14.60;84.80;;;;;;4981982;28;20057;-47
2022/10/05 03:21:34;;;;;;;9.40;7.07;;;14.60;84.80;;;;;;5034830;28;20457;-46
2022/10/05 03:24:21;;;;;;;10.27;7.28;;;14.60;84.70;;;;;;5034976;28;20040;-47
2022/10/05 03:27:28;;;;;;;13.73;7.40;;;14.70;84.80;;;;;;5034861;28;20025;-46
2022/10/05 03:30:14;;;;;;;9.20;7.60;;;14.60;84.90;;;;;;5039570;28;20025;-46
2022/10/05 03:32:46;;;;;;;8.00;6.18;;;14.60;84.90;;;;;;5053695;28;20369;-46
2022/10/05 03:35:33;;;;;;;10.45;7.68;;;14.60;85.00;;;;;;5054317;28;20049;-49
2022/10/05 03:38:07;;;;;;;11.82;7.43;;;14.60;85.00;;;;;;5032498;28;20056;-47
2022/10/05 03:40:43;;;;;;;8.77;6.45;;;14.60;85.00;;;;;;5016940;28;20418;-48
2022/10/05 03:43:46;;;;;;;10.27;6.32;;;14.60;85.10;;;;;;5034648;28;20029;-46
2022/10/05 03:46:40;;;;;;;10.30;6.20;;;14.60;85.10;;;;;;5034085;28;20390;-45
2022/10/05 03:49:18;;;;;;;10.30;6.70;;;14.60;85.10;;;;;;5035917;28;20128;-46
2022/10/05 03:51:59;;;;;;;7.28;6.03;;;14.70;85.00;;;;;;5041898;28;20071;-45
2022/10/05 03:54:33;;;;;;;8.05;6.70;;;14.70;84.90;;;;;;5054276;28;20029;-49
2022/10/05 03:57:28;;;;;;;10.70;6.07;;;14.70;84.80;;;;;;5054110;28;20029;-46
2022/10/05 04:00:24;;;;;;;14.10;7.53;;;14.70;85.00;;;;;;5026860;28;20041;-49
2022/10/05 04:03:27;;;;;;;10.32;6.53;;;14.60;85.00;;;;;;5034474;28;20399;-47
2022/10/05 04:06:06;;;;;;;10.23;6.70;;;14.70;85.10;;;;;;5033227;28;20033;-46
2022/10/05 04:08:46;;;;;;;8.60;7.03;;;14.60;85.00;;;;;;5052811;28;20378;-47
2022/10/05 04:11:21;;;;;;;7.60;6.43;;;14.60;85.10;;;;;;5051901;28;20072;-49
2022/10/05 04:14:09;;;;;;;7.53;6.47;;;14.60;85.10;;;;;;5029010;28;20036;-46
2022/10/05 04:16:43;;;;;;;8.85;6.55;;;14.60;85.20;;;;;;5048039;28;20454;-46
2022/10/05 04:19:33;;;;;;;7.32;6.15;;;14.60;85.30;;;;;;5021544;28;20036;-47
2022/10/05 04:22:34;;;;;;;9.63;7.43;;;14.60;85.20;;;;;;5000948;28;20029;-48
2022/10/05 04:25:06;;;;;;;10.40;7.18;;;14.50;85.20;;;;;;5019796;28;20034;-46
2022/10/05 04:28:06;;;;;;;11.30;7.55;;;14.60;85.20;;;;;;5016170;28;20025;-45
2022/10/05 04:30:40;;;;;;;11.18;6.93;;;14.50;85.20;;;;;;5041999;28;20025;-45
2022/10/05 04:33:11;;;;;;;8.52;6.65;;;14.50;85.40;;;;;;5053336;28;20020;-47
2022/10/05 04:36:26;;;;;;;7.82;6.50;;;14.60;85.50;;;;;;5053356;28;20056;-47
2022/10/05 04:39:48;;;;;;;8.18;6.85;;;14.50;85.50;;;;;;5009986;28;20111;-50
2022/10/05 04:42:18;;;;;;;8.45;6.65;;;14.50;85.60;;;;;;4951135;28;20058;-45
2022/10/05 04:45:02;;;;;;;10.55;7.40;;;14.60;85.70;;;;;;5048274;28;20106;-45
2022/10/05 04:48:22;;;;;;;9.43;6.65;;;14.50;85.80;;;;;;5050819;28;20108;-46
2022/10/05 04:51:11;;;;;;;10.35;7.32;;;14.50;85.80;;;;;;5029935;28;20037;-45
2022/10/05 04:54:03;;;;;;;10.32;7.38;;;14.50;85.90;;;;;;5035124;28;20029;-48
2022/10/05 04:56:48;;;;;;;13.20;8.20;;;14.50;85.90;;;;;;5034924;28;20435;-47
2022/10/05 04:59:41;;;;;;;9.45;6.90;;;14.50;86.00;;;;;;5031024;28;20029;-48
2022/10/05 05:02:31;;;;;;;10.25;7.90;;;14.50;85.90;;;;;;5051757;28;20354;-47
2022/10/05 05:05:37;;;;;;;9.85;7.47;;;14.50;85.80;;;;;;5051674;28;20021;-47
2022/10/05 05:08:19;;;;;;;13.32;8.32;;;14.50;85.80;;;;;;5030796;28;20473;-47
2022/10/05 05:11:19;;;;;;;9.38;8.02;;;14.50;85.80;;;;;;5050723;28;20060;-45
2022/10/05 05:14:04;;;;;;;15.55;8.90;;;14.60;85.70;;;;;;5052180;28;20108;-47
2022/10/05 05:17:02;;;;;;;11.77;7.85;;;14.50;85.70;;;;;;5050475;28;20374;-50
2022/10/05 05:20:02;;;;;;;10.23;7.63;;;14.50;85.70;;;;;;5031668;28;20053;-50
2022/10/05 05:22:46;;;;;;;12.05;7.95;;;14.50;86.00;;;;;;5051273;28;20488;-46
2022/10/05 05:25:30;;;;;;;12.60;7.65;;;14.50;86.00;;;;;;5052012;28;20029;-46
2022/10/05 05:28:18;;;;;;;10.70;7.50;;;14.50;86.00;;;;;;5052794;28;20021;-45
2022/10/05 05:30:59;;;;;;;9.50;7.93;;;14.50;86.00;;;;;;5050355;28;20408;-49
2022/10/05 05:33:54;;;;;;;11.52;8.20;;;14.50;86.10;;;;;;5035269;28;20084;-50
2022/10/05 05:36:27;;;;;;;12.40;8.13;;;14.50;86.00;;;;;;5049045;28;20045;-50
2022/10/05 05:39:26;;;;;;;9.82;8.18;;;14.50;86.10;;;;;;5050724;28;20056;-46
2022/10/05 05:42:17;;;;;;;10.65;8.45;;;14.50;86.10;;;;;;5044257;28;20017;-47
2022/10/05 05:44:49;;;;;;;12.25;8.27;;;14.50;86.00;;;;;;5048062;28;20450;-46
2022/10/05 05:47:23;;;;;;;8.98;8.00;;;14.50;86.00;;;;;;5039408;28;20082;-50
2022/10/05 05:50:32;;;;;;;12.82;9.20;;;14.50;86.10;;;;;;5025541;28;20018;-45
2022/10/05 05:53:03;;;;;;;10.15;7.68;;;14.50;86.20;;;;;;5012715;28;20403;-48
2022/10/05 05:55:48;;;;;;;13.70;8.95;;;14.50;86.10;;;;;;5050832;28;20039;-49
2022/10/05 05:58:39;;;;;;;11.23;8.63;;;14.60;86.10;;;;;;5035992;28;20045;-48
2022/10/05 06:01:17;;;;;;;12.07;9.38;;;14.50;86.10;;;;;;5054624;28;20519;-49
2022/10/05 06:04:00;;;;;;;11.02;7.72;;;14.50;86.00;;;;;;5055413;28;20025;-47
2022/10/05 06:06:31;;;;;;;11.30;8.18;;;14.50;86.10;;;;;;5053251;28;20033;-47
2022/10/05 06:09:03;;;;;;;10.55;8.88;;;14.50;86.20;;;;;;5053084;28;20076;-45
2022/10/05 06:11:39;;;;;;;12.73;8.23;;;14.50;86.20;;;;;;5054272;28;20029;-49
2022/10/05 06:14:22;;;;;;;13.00;8.57;;;14.50;86.10;;;;;;5053781;28;20672;-49
2022/10/05 06:17:07;;;;;;;14.25;9.00;;;14.50;86.10;;;;;;5054196;28;20060;-46
2022/10/05 06:19:36;;;;;;;11.05;9.38;;;14.50;86.00;;;;;;5055331;28;20029;-46
2022/10/05 06:22:24;;;;;;;13.18;9.95;;;14.50;86.00;;;;;;5043873;28;20031;-45
2022/10/05 06:25:04;;;;;;;11.82;8.48;;;14.50;86.10;;;;;;5053079;28;20044;-48
2022/10/05 06:28:08;;;;;;;10.68;8.55;;;14.50;86.10;;;;;;5044262;28;20032;-45
2022/10/05 06:31:17;;;;;;;10.95;8.43;;;14.50;86.10;;;;;;5036196;28;20017;-47
2022/10/05 06:34:07;;;;;;;10.60;8.07;;;14.50;86.20;;;;;;5036833;28;20073;-47
2022/10/05 06:36:54;;;;;;;10.60;8.57;;;14.50;86.20;;;;;;5028167;28;20304;-46
2022/10/05 06:39:54;;;;;;;11.55;9.02;;;14.50;86.30;;;;;;5014851;28;20029;-50
2022/10/05 06:42:47;;;;;;;10.93;9.15;;;14.50;86.20;;;;;;5038449;28;20022;-47
2022/10/05 06:45:51;;;;;;;12.43;8.15;;;14.50;86.20;;;;;;5048209;28;20378;-46
2022/10/05 06:48:54;;;;;;;10.30;8.88;;;14.50;86.10;;;;;;5037335;28;20029;-46
2022/10/05 06:51:37;;;;;;;13.00;8.57;;;14.50;86.30;;;;;;5025508;28;20427;-48
2022/10/05 06:54:36;;;;;;;12.35;8.75;;;14.50;86.20;;;;;;5032652;28;20119;-45
2022/10/05 06:57:35;;;;;;;9.98;8.32;;;14.60;86.30;;;;;;5042926;28;20092;-50
2022/10/05 07:00:23;;;;;;;13.73;9.35;;;14.60;86.10;;;;;;5036011;28;20027;-44
2022/10/05 07:03:14;;;;;;;11.13;9.00;;;14.60;86.10;;;;;;5022997;28;20069;-48
2022/10/05 07:06:27;;;;;;;11.15;8.48;;;14.60;86.10;;;;;;5054376;28;20033;-48
2022/10/05 07:09:31;;;;;;;13.52;9.30;;;14.60;86.00;;;;;;5003593;28;20052;-53
2022/10/05 07:12:35;;;;;;;14.40;8.75;;;14.50;86.10;;;;;;4988293;28;20062;-47
2022/10/05 07:15:00;;;;;;;12.02;8.88;;;14.60;86.20;;;;;;5024016;28;20042;-47
2022/10/05 07:18:04;;;;;;;12.90;9.30;;;14.50;86.20;;;;;;5053673;28;20048;-46
2022/10/05 07:20:43;;;;;;;10.05;8.93;;;14.60;86.30;;;;;;5053999;28;20055;-49
2022/10/05 07:23:32;;;;;;;12.27;9.02;;;14.50;86.20;;;;;;5054151;28;20532;-48
2022/10/05 07:26:04;;;;;;;10.82;8.55;;;14.60;86.30;;;;;;5038430;28;20051;-47
2022/10/05 07:29:07;;;;;;;11.02;9.10;;;14.60;86.20;;;;;;5030204;28;20030;-46
2022/10/05 07:31:44;;;;;;;11.98;9.73;;;14.60;86.30;;;;;;5031146;28;20100;-51
2022/10/05 07:34:28;;;;;;;12.32;10.27;;;14.60;86.00;;;;;;5029979;28;20054;-49
2022/10/05 07:40:18;;;;;;;15.32;9.88;;;14.80;85.80;;;;;;5033907;28;20040;-49
2022/10/05 07:43:02;;;;;;;16.75;10.27;;;14.80;85.50;;;;;;5032539;28;20029;-47
2022/10/05 07:45:52;;;;;;;11.75;9.43;;;14.80;85.60;;;;;;5032696;28;20033;-47
2022/10/05 07:48:53;;;;;;;13.77;10.35;;;14.80;85.70;;;;;;5013825;28;20026;-48
2022/10/05 07:51:44;;;;;;;11.38;9.50;;;14.90;85.60;;;;;;5013683;28;20034;-49
2022/10/05 07:54:24;;;;;;;14.18;11.05;;;14.90;85.50;;;;;;5032986;28;20030;-47
2022/10/05 07:57:18;;;;;;;12.50;10.05;;;14.90;85.30;;;;;;5031335;28;20443;-47
2022/10/05 08:00:00;;;;;;;11.80;10.57;;;14.90;85.60;;;;;;5031778;28;20033;-51
2022/10/05 08:02:44;;;;;;;15.05;10.68;;;15.00;85.30;;;;;;5031149;28;20033;-46
2022/10/05 08:05:25;;;;;;;12.65;10.95;;;15.00;85.30;;;;;;5048675;28;20025;-49
2022/10/05 08:08:31;;;;;;;12.68;11.32;;;15.10;85.20;;;;;;5032467;28;20059;-51
2022/10/05 08:11:40;;;;;;;13.73;10.05;;;15.10;84.80;;;;;;5031219;28;20021;-45
2022/10/05 08:14:43;;;;;;;22.77;14.68;;;15.10;84.70;;;;;;5019288;28;20079;-51
2022/10/05 08:17:37;;;;;;;12.15;10.80;;;15.30;84.70;;;;;;5029848;28;20091;-46
2022/10/05 08:20:18;;;;;;;14.57;10.77;;;15.30;84.60;;;;;;5031289;28;20024;-49
2022/10/05 08:22:50;;;;;;;10.90;9.75;;;15.40;84.20;;;;;;5041798;28;20408;-47
2022/10/05 08:25:29;;;;;;;14.88;11.40;;;15.40;84.00;;;;;;5031487;28;20183;-44
2022/10/05 08:28:08;;;;;;;12.45;10.57;;;15.40;83.40;;;;;;5047968;28;20029;-47
2022/10/05 08:30:50;;;;;;;14.40;10.27;;;15.50;83.70;;;;;;5029395;28;20041;-50
2022/10/05 08:33:19;;;;;;;14.02;11.48;;;15.50;83.60;;;;;;5032345;28;20041;-47
2022/10/05 08:36:09;;;;;;;11.85;10.65;;;15.50;83.50;;;;;;5051333;28;20028;-48
2022/10/05 08:38:37;;;;;;;13.85;9.27;;;15.60;83.60;;;;;;5015817;28;20874;-45
2022/10/05 08:41:33;;;;;;;13.10;10.48;;;15.70;83.00;;;;;;5032328;28;20036;-45
2022/10/05 08:44:36;;;;;;;11.13;9.07;;;15.80;82.50;;;;;;5049207;28;20071;-49
2022/10/05 08:47:28;;;;;;;11.60;9.43;;;15.90;82.30;;;;;;5046086;28;20537;-46
2022/10/05 08:50:31;;;;;;;11.80;9.80;;;15.90;82.30;;;;;;5043544;28;20037;-46
2022/10/05 08:53:21;;;;;;;11.68;9.43;;;15.90;82.30;;;;;;5050551;28;20103;-45
2022/10/05 08:56:20;;;;;;;8.98;7.82;;;15.90;81.90;;;;;;5039991;28;20026;-49
2022/10/05 08:59:13;;;;;;;10.75;8.77;;;16.00;82.10;;;;;;5048914;28;20032;-45
2022/10/05 09:02:00;;;;;;;9.10;7.75;;;16.10;81.40;;;;;;5048413;28;20039;-46
2022/10/05 09:04:47;;;;;;;10.48;6.30;;;16.20;80.80;;;;;;5050919;28;20029;-46
2022/10/05 09:07:34;;;;;;;7.13;5.85;;;16.20;79.50;;;;;;5051711;28;20047;-46
2022/10/05 09:10:23;;;;;;;9.68;5.90;;;16.30;79.90;;;;;;5030856;28;20025;-46
2022/10/05 09:13:08;;;;;;;11.52;6.65;;;16.20;79.60;;;;;;5049561;28;20075;-44
2022/10/05 09:15:55;;;;;;;6.57;5.70;;;16.30;80.00;;;;;;5034524;28;20032;-48
2022/10/05 09:18:58;;;;;;;6.95;6.25;;;16.30;80.20;;;;;;5043190;28;20071;-47
2022/10/05 09:22:03;;;;;;;8.90;6.32;;;16.20;79.30;;;;;;5051697;28;20036;-47
2022/10/05 09:24:41;;;;;;;7.20;5.85;;;16.30;79.70;;;;;;5050332;28;20467;-45
2022/10/05 09:27:16;;;;;;;5.78;5.18;;;16.20;79.50;;;;;;5048063;28;20335;-46
2022/10/05 09:30:19;;;;;;;9.00;6.88;;;16.30;79.60;;;;;;5036293;28;20030;-46
2022/10/05 09:33:24;;;;;;;7.47;6.78;;;16.30;79.60;;;;;;5049900;28;20082;-45
2022/10/05 09:35:51;;;;;;;6.60;5.72;;;16.40;80.10;;;;;;5032112;28;20091;-46
2022/10/05 09:38:49;;;;;;;7.85;5.90;;;16.40;79.10;;;;;;5020641;28;20500;-49
2022/10/05 09:41:26;;;;;;;6.82;5.00;;;16.40;79.00;;;;;;5012074;28;20029;-47
2022/10/05 09:44:26;;;;;;;9.30;6.20;;;16.50;79.40;;;;;;5014588;28;20033;-48
2022/10/05 09:47:16;;;;;;;9.23;5.53;;;16.60;78.80;;;;;;5031468;28;20022;-47
2022/10/05 09:50:28;;;;;;;6.47;4.75;;;16.70;78.20;;;;;;5008637;28;20031;-47
2022/10/05 09:53:18;;;;;;;6.72;5.07;;;16.70;78.00;;;;;;4991245;28;20045;-45
2022/10/05 09:56:17;;;;;;;9.50;4.47;;;16.70;77.80;;;;;;5029998;28;20051;-45
2022/10/05 09:58:54;;;;;;;6.75;5.05;;;16.80;78.00;;;;;;5028532;28;20022;-45
2022/10/05 10:01:57;;;;;;;7.00;5.38;;;16.80;78.30;;;;;;5028912;28;20236;-45
2022/10/05 10:04:48;;;;;;;9.43;5.15;;;16.70;77.40;;;;;;4998820;28;20356;-47
2022/10/05 10:07:40;;;;;;;8.00;5.50;;;16.70;78.30;;;;;;5027085;28;20033;-47
2022/10/05 10:10:30;;;;;;;9.85;5.90;;;16.80;78.40;;;;;;5022248;28;20026;-47
2022/10/05 10:13:01;;;;;;;6.82;6.13;;;16.60;78.30;;;;;;5019631;28;20029;-47
2022/10/05 10:15:48;;;;;;;6.72;5.78;;;16.50;78.70;;;;;;5014416;28;20037;-45
2022/10/05 10:18:59;;;;;;;9.25;6.30;;;16.60;78.80;;;;;;5029940;28;20056;-47
2022/10/05 10:21:44;;;;;;;8.50;5.93;;;16.60;79.30;;;;;;4981234;28;20118;-48
2022/10/05 10:24:47;;;;;;;9.40;6.57;;;16.50;78.50;;;;;;5035276;28;20021;-47
2022/10/05 10:27:35;;;;;;;6.22;5.60;;;16.40;79.10;;;;;;5028716;28;20057;-46
2022/10/05 10:30:28;;;;;;;9.93;6.88;;;16.50;78.90;;;;;;5000456;28;20029;-45
2022/10/05 10:33:22;;;;;;;8.60;5.25;;;16.50;78.80;;;;;;5032352;28;20639;-46
2022/10/05 10:36:25;;;;;;;7.45;5.55;;;16.70;79.10;;;;;;5030914;28;20026;-48
2022/10/05 10:39:30;;;;;;;7.68;5.53;;;16.80;79.70;;;;;;5032501;28;20036;-45
2022/10/05 10:42:17;;;;;;;7.72;5.00;;;16.90;78.90;;;;;;4957846;28;20062;-45
2022/10/05 10:45:15;;;;;;;7.28;4.20;;;16.90;78.00;;;;;;5033864;28;20382;-45
2022/10/05 10:47:59;;;;;;;6.90;3.92;;;17.00;78.20;;;;;;5032330;28;20033;-45
2022/10/05 10:50:43;;;;;;;6.90;3.65;;;17.10;77.90;;;;;;5013192;28;20088;-45
2022/10/05 10:53:14;;;;;;;5.40;3.50;;;17.00;77.10;;;;;;5034368;28;20105;-46
2022/10/05 10:56:10;;;;;;;5.45;3.70;;;17.10;76.80;;;;;;5034492;28;20032;-46
2022/10/05 10:58:54;;;;;;;5.55;3.42;;;17.10;76.30;;;;;;5028620;28;20045;-50
2022/10/05 11:01:48;;;;;;;5.57;3.50;;;17.10;76.00;;;;;;5026848;28;20466;-45
2022/10/05 11:04:25;;;;;;;5.13;3.95;;;17.00;76.40;;;;;;5032840;28;20044;-46
2022/10/05 11:07:28;;;;;;;6.05;3.50;;;16.90;76.90;;;;;;5033096;28;20029;-46
2022/10/05 11:10:31;;;;;;;6.70;4.18;;;16.90;77.10;;;;;;5033928;28;20036;-46
2022/10/05 11:13:15;;;;;;;5.13;3.58;;;16.90;76.80;;;;;;5031699;28;20065;-46
2022/10/05 11:16:06;;;;;;;6.38;3.75;;;16.90;77.10;;;;;;5034059;28;20022;-44
2022/10/05 11:19:04;;;;;;;5.75;4.15;;;16.90;77.30;;;;;;5032239;28;20095;-46
2022/10/05 11:22:05;;;;;;;5.60;3.92;;;16.90;76.90;;;;;;5027582;28;20048;-48
2022/10/05 11:25:08;;;;;;;4.78;3.90;;;16.90;76.70;;;;;;5032183;28;20037;-47
2022/10/05 11:27:52;;;;;;;5.10;4.07;;;16.80;77.20;;;;;;5014226;28;20195;-46
2022/10/05 11:30:34;;;;;;;6.57;4.13;;;16.80;77.10;;;;;;5014350;28;20092;-46
2022/10/05 11:33:30;;;;;;;5.75;4.05;;;16.80;76.50;;;;;;5022253;28;20026;-48
2022/10/05 11:36:36;;;;;;;6.55;4.43;;;16.80;76.20;;;;;;5034103;28;20033;-46
2022/10/05 11:39:27;;;;;;;5.65;4.15;;;16.80;76.90;;;;;;4986735;28;20490;-46
2022/10/05 11:42:27;;;;;;;5.35;3.67;;;16.70;77.30;;;;;;5032533;28;20029;-45
2022/10/05 11:45:12;;;;;;;;;;;16.80;77.20;;;;;;5043541;28;20021;-46
2022/10/05 11:48:02;;;;;;;5.22;3.65;;;16.80;76.80;;;;;;5016498;28;19913;-46
2022/10/05 11:50:55;;;;;;;7.15;4.00;;;16.90;76.70;;;;;;5030927;28;20033;-45
2022/10/05 11:53:31;;;;;;;4.22;3.40;;;16.90;75.60;;;;;;5051100;28;20060;-45
2022/10/05 11:56:33;;;;;;;5.25;4.13;;;16.90;76.00;;;;;;5052483;28;20025;-46
2022/10/05 11:59:25;;;;;;;11.95;5.05;;;16.90;75.90;;;;;;5052612;28;20334;-47
2022/10/05 12:02:30;;;;;;;11.85;4.65;;;17.00;75.20;;;;;;5052420;28;20091;-46
2022/10/05 12:05:28;;;;;;;6.40;4.20;;;16.90;75.40;;;;;;5045930;28;20029;-45
2022/10/05 12:08:02;;;;;;;8.77;4.88;;;16.90;76.40;;;;;;4994480;28;20065;-47
2022/10/05 12:10:49;;;;;;;5.40;4.32;;;16.80;76.50;;;;;;5053407;28;20041;-45
2022/10/05 12:13:29;;;;;;;8.43;4.70;;;16.80;76.90;;;;;;5051037;28;20025;-46
2022/10/05 12:16:30;;;;;;;5.85;4.97;;;16.80;77.00;;;;;;5051340;28;20037;-47
2022/10/05 12:19:05;;;;;;;6.32;5.00;;;16.70;76.90;;;;;;5043245;28;20033;-48
2022/10/05 12:21:34;;;;;;;6.18;5.57;;;16.60;76.40;;;;;;5049665;28;20029;-48
2022/10/05 12:24:15;;;;;;;7.73;5.17;;;16.60;76.80;;;;;;5052714;28;20021;-47
2022/10/05 12:26:53;;;;;;;5.75;5.15;;;16.60;77.20;;;;;;5052090;28;20112;-47
2022/10/05 12:29:41;;;;;;;5.57;4.57;;;16.60;77.00;;;;;;5053079;28;20060;-47
2022/10/05 12:32:37;;;;;;;7.93;5.50;;;16.50;76.80;;;;;;5032400;28;20034;-45
2022/10/05 12:35:34;;;;;;;8.98;5.30;;;16.50;76.80;;;;;;5037495;28;20053;-45
2022/10/05 12:38:15;;;;;;;7.93;5.35;;;16.50;77.20;;;;;;5025352;28;20050;-47
2022/10/05 12:40:55;;;;;;;7.03;5.32;;;16.60;76.40;;;;;;5013398;28;20116;-46
2022/10/05 12:44:05;;;;;;;7.68;5.32;;;16.60;76.80;;;;;;5024373;28;20021;-48
2022/10/05 12:46:51;;;;;;;;;;;16.60;76.60;;;;;;5032819;28;20612;-46
2022/10/05 12:49:47;;;;;;;8.40;5.05;;;16.60;75.90;;;;;;5023118;28;19908;-45
2022/10/05 12:53:00;;;;;;;12.15;6.03;;;16.60;76.60;;;;;;5024893;28;20522;-48
2022/10/05 12:55:28;;;;;;;7.05;6.10;;;16.60;77.50;;;;;;4993879;28;20045;-46
2022/10/05 12:58:19;;;;;;;7.75;5.57;;;16.60;77.40;;;;;;5027012;28;20053;-47
2022/10/05 13:00:54;;;;;;;6.20;4.30;;;16.60;77.40;;;;;;5027033;28;20347;-49
2022/10/05 13:03:25;;;;;;;6.30;5.28;;;16.50;77.10;;;;;;5021679;28;20029;-49
2022/10/05 13:06:32;;;;;;;7.53;5.50;;;16.60;77.00;;;;;;5010853;28;20034;-46
2022/10/05 13:09:35;;;;;;;7.00;4.30;;;16.60;77.00;;;;;;5023849;28;20044;-47
2022/10/05 13:12:25;;;;;;;10.30;4.95;;;16.60;77.90;;;;;;5006192;28;20048;-50
2022/10/05 13:15:16;;;;;;;8.23;5.05;;;16.70;77.80;;;;;;5009769;28;20101;-48
2022/10/05 13:17:59;;;;;;;8.05;4.82;;;16.60;77.60;;;;;;5022081;28;20346;-46
2022/10/05 13:20:38;;;;;;;8.82;4.55;;;16.70;77.40;;;;;;5029095;28;20030;-50
2022/10/05 13:23:33;;;;;;;8.10;4.63;;;16.70;76.80;;;;;;5026831;28;20383;-47
2022/10/05 13:26:20;;;;;;;7.05;4.90;;;16.70;77.40;;;;;;5028828;28;20120;-46
2022/10/05 13:28:46;;;;;;;5.68;4.07;;;16.70;77.10;;;;;;5022348;28;20032;-49
2022/10/05 13:31:25;;;;;;;5.63;4.47;;;16.70;77.60;;;;;;5022838;28;20025;-48
2022/10/05 13:34:23;;;;;;;5.68;4.30;;;16.70;77.80;;;;;;5029648;28;20443;-46
2022/10/05 13:37:32;;;;;;;8.40;5.45;;;16.70;77.90;;;;;;5046275;28;20040;-46
2022/10/05 13:40:22;;;;;;;9.05;5.00;;;16.60;78.50;;;;;;5048704;28;20458;-47
2022/10/05 13:43:16;;;;;;;7.60;5.00;;;16.70;77.50;;;;;;5051084;28;20028;-47
2022/10/05 13:46:05;;;;;;;5.75;4.30;;;16.80;78.20;;;;;;5051737;28;20055;-50
2022/10/05 13:49:07;;;;;;;5.95;4.32;;;16.80;77.70;;;;;;5032546;28;20354;-47
2022/10/05 13:51:41;;;;;;;5.28;4.35;;;16.90;78.30;;;;;;5034773;28;20029;-47
2022/10/05 13:54:36;;;;;;;7.57;4.40;;;16.90;77.60;;;;;;5052345;28;20101;-46
2022/10/05 13:57:21;;;;;;;7.55;4.45;;;16.90;77.80;;;;;;5037259;28;20029;-46
2022/10/05 13:59:56;;;;;;;4.80;4.00;;;16.90;77.40;;;;;;5055355;28;20104;-48
2022/10/05 14:02:46;;;;;;;7.55;4.20;;;16.90;77.50;;;;;;5050318;28;20124;-47
2022/10/05 14:05:30;;;;;;;4.82;3.47;;;17.00;77.40;;;;;;5051979;28;20492;-48
2022/10/05 14:08:16;;;;;;;4.90;3.60;;;17.00;77.50;;;;;;5053847;28;20027;-51
2022/10/05 14:10:45;;;;;;;7.28;4.03;;;17.00;77.70;;;;;;5055720;28;20021;-47
2022/10/05 14:13:43;;;;;;;7.78;3.97;;;17.00;77.60;;;;;;5055599;28;20013;-46
2022/10/05 14:16:32;;;;;;;4.68;3.10;;;17.00;77.60;;;;;;5052098;28;20068;-46
2022/10/05 14:19:06;;;;;;;7.47;3.77;;;17.00;78.00;;;;;;5054413;28;20484;-49
2022/10/05 14:21:48;;;;;;;9.27;3.85;;;17.00;77.70;;;;;;5052403;28;20268;-49
2022/10/05 14:24:45;;;;;;;6.57;3.67;;;17.00;77.60;;;;;;5048948;28;20137;-50
2022/10/05 14:27:29;;;;;;;7.22;3.63;;;17.10;77.70;;;;;;5036239;28;20040;-48
2022/10/05 14:30:08;;;;;;;4.57;3.70;;;17.30;77.60;;;;;;5055405;28;20025;-50